createdAt,value
2023-03-13T00:00:29.769Z,100033.88
2023-03-13T00:03:30.771Z,100031.60
2023-03-13T00:06:45.779Z,100041.20
2023-03-13T00:09:45.778Z,100038.20
2023-03-13T00:12:47.777Z,100032.91
2023-03-13T00:15:55.788Z,100046.36
2023-03-13T00:19:04.789Z,100037.67
2023-03-13T00:22:06.132Z,100039.40
2023-03-13T00:25:07.795Z,100035.80
2023-03-13T00:28:09.766Z,100043.65
2023-03-13T00:31:43.974Z,100046.54
2023-03-13T00:34:50.856Z,100045.14
2023-03-13T00:37:51.809Z,100049.05
2023-03-13T00:40:51.805Z,100054.52
2023-03-13T00:43:54.900Z,100051.88
2023-03-13T00:46:57.814Z,100059.79
2023-03-13T00:49:57.860Z,100067.38
2023-03-13T00:52:58.823Z,100061.96
2023-03-13T00:56:09.854Z,100066.02
2023-03-13T00:59:09.816Z,100061.48
2023-03-13T01:02:10.924Z,100057.58
2023-03-13T01:05:10.840Z,100061.52
2023-03-13T01:08:13.924Z,100065.73
2023-03-13T01:11:17.884Z,100066.44
2023-03-13T01:14:20.911Z,100065.56
2023-03-13T01:17:23.940Z,100055.64
2023-03-13T01:20:25.885Z,100058.58
2023-03-13T01:23:25.911Z,100050.74
2023-03-13T01:26:34.045Z,100064.61
2023-03-13T01:29:36.891Z,100066.27
2023-03-13T01:32:37.036Z,100063.38
2023-03-13T01:35:37.932Z,100066.48
2023-03-13T01:38:40.949Z,100070.56
2023-03-13T01:41:49.964Z,100074.91
2023-03-13T01:45:07.049Z,100079.77
2023-03-13T01:48:07.975Z,100091.43
2023-03-13T01:51:20.914Z,100092.00
2023-03-13T01:54:40.988Z,100101.99
2023-03-13T01:57:45.071Z,100108.48
2023-03-13T02:00:49.186Z,100117.13
2023-03-13T02:03:55.966Z,100117.96
2023-03-13T02:06:57.972Z,100130.14
2023-03-13T02:09:59.937Z,100132.44
2023-03-13T02:13:00.976Z,100138.54
2023-03-13T02:16:04.065Z,100145.40
2023-03-13T02:19:03.966Z,100146.64
2023-03-13T02:22:16.068Z,100150.09
2023-03-13T02:25:40.017Z,100150.81
2023-03-13T02:28:50.057Z,100152.59
2023-03-13T02:31:52.005Z,100152.46
2023-03-13T02:34:52.094Z,100155.08
2023-03-13T02:37:54.985Z,100152.98
2023-03-13T02:40:58.987Z,100156.03
2023-03-13T02:43:59.020Z,100155.63
2023-03-13T02:47:02.085Z,100160.77
2023-03-13T02:50:03.029Z,100171.45
2023-03-13T02:53:07.070Z,100168.27
2023-03-13T02:56:07.031Z,100170.02
2023-03-13T02:59:07.086Z,100167.92
2023-03-13T03:02:09.051Z,100169.08
2023-03-13T03:05:09.104Z,100177.01
2023-03-13T03:08:10.063Z,100179.30
2023-03-13T03:11:11.174Z,100185.68
2023-03-13T03:14:13.133Z,100186.15
2023-03-13T03:17:13.192Z,100184.30
2023-03-13T03:20:19.060Z,100187.67
2023-03-13T03:23:20.099Z,100194.31
2023-03-13T03:26:22.115Z,100193.05
2023-03-13T03:29:22.156Z,100197.65
2023-03-13T03:32:23.236Z,100205.20
2023-03-13T03:35:23.132Z,100213.63
2023-03-13T03:38:23.146Z,100226.17
2023-03-13T03:41:25.118Z,100232.36
2023-03-13T03:44:25.127Z,100232.14
2023-03-13T03:47:26.237Z,100238.69
2023-03-13T03:50:27.473Z,100246.57
2023-03-13T03:53:35.423Z,100248.04
2023-03-13T03:56:35.139Z,100247.05
2023-03-13T03:59:36.129Z,100252.10
2023-03-13T04:02:38.211Z,100261.34
2023-03-13T04:05:44.155Z,100262.99
2023-03-13T04:08:45.162Z,100265.55
2023-03-13T04:11:54.211Z,100269.92
2023-03-13T04:14:54.169Z,100269.44
2023-03-13T04:17:55.180Z,100271.26
2023-03-13T04:20:56.214Z,100275.82
2023-03-13T04:23:57.184Z,100285.07
2023-03-13T04:26:58.164Z,100291.17
2023-03-13T04:29:58.318Z,100291.77
2023-03-13T04:33:24.195Z,100296.65
2023-03-13T04:36:41.173Z,100296.84
2023-03-13T04:40:00.193Z,100302.73
2023-03-13T04:43:20.345Z,100302.41
2023-03-13T04:46:40.383Z,100300.08
2023-03-13T04:50:12.186Z,100301.31
2023-03-13T04:53:29.213Z,100307.35
2023-03-13T04:56:43.719Z,100302.35
2023-03-13T05:00:18.610Z,100300.17
2023-03-13T05:03:38.306Z,100301.31
2023-03-13T05:06:45.272Z,100304.20
2023-03-13T05:10:18.260Z,100300.75
2023-03-13T05:13:34.187Z,100305.66
2023-03-13T05:16:58.279Z,100308.01
2023-03-13T05:20:22.215Z,100307.46
2023-03-13T05:23:59.247Z,100315.17
2023-03-13T05:27:13.200Z,100311.90
2023-03-13T05:30:24.291Z,100321.29
2023-03-13T05:33:32.293Z,100322.19
2023-03-13T05:36:52.456Z,100317.58
2023-03-13T05:40:04.938Z,100324.83
2023-03-13T05:43:34.481Z,100326.30
2023-03-13T05:46:45.710Z,100332.55
2023-03-13T05:50:07.292Z,100327.01
2023-03-13T05:53:30.880Z,100337.58
2023-03-13T05:56:47.367Z,100335.08
2023-03-13T06:00:02.352Z,100339.80
2023-03-13T06:03:23.367Z,100343.11
2023-03-13T06:06:23.397Z,100348.25
2023-03-13T06:09:23.408Z,100355.02
2023-03-13T06:12:25.587Z,100351.62
2023-03-13T06:15:28.409Z,100343.77
2023-03-13T06:18:40.545Z,100354.45
2023-03-13T06:21:40.355Z,100351.13
2023-03-13T06:24:44.330Z,100353.98
2023-03-13T06:27:44.566Z,100366.44
2023-03-13T06:30:44.352Z,100365.70
2023-03-13T06:33:49.573Z,100365.50
2023-03-13T06:36:52.396Z,100367.31
2023-03-13T06:39:53.414Z,100371.59
2023-03-13T06:42:57.367Z,100364.86
2023-03-13T06:45:59.350Z,100367.16
2023-03-13T06:49:03.463Z,100376.53
2023-03-13T06:52:12.415Z,100375.59
2023-03-13T06:55:12.424Z,100373.82
2023-03-13T06:58:31.659Z,100383.02
2023-03-13T07:01:32.685Z,100380.58
2023-03-13T07:04:38.574Z,100398.52
2023-03-13T07:07:39.425Z,100401.66
2023-03-13T07:10:40.514Z,100403.34
2023-03-13T07:13:41.548Z,100401.04
2023-03-13T07:16:46.637Z,100413.04
2023-03-13T07:19:54.660Z,100404.20
2023-03-13T07:23:07.542Z,100410.36
2023-03-13T07:26:13.556Z,100407.02
2023-03-13T07:29:15.451Z,100407.74
2023-03-13T07:32:17.628Z,100411.59
2023-03-13T07:35:19.462Z,100412.83
2023-03-13T07:38:19.817Z,100390.52
2023-03-13T07:41:21.004Z,100399.86
2023-03-13T07:44:23.427Z,100396.73
2023-03-13T07:47:23.492Z,100394.78
2023-03-13T07:50:25.621Z,100402.98
2023-03-13T07:53:29.568Z,100400.22
2023-03-13T07:56:33.508Z,100394.66
2023-03-13T07:59:35.591Z,100399.27
2023-03-13T08:02:38.701Z,100406.09
2023-03-13T08:05:41.765Z,100395.25
2023-03-13T08:08:49.161Z,100401.88
2023-03-13T08:11:54.576Z,100406.80
2023-03-13T08:15:10.997Z,100402.64
2023-03-13T08:18:12.641Z,100412.09
2023-03-13T08:21:18.539Z,100402.21
2023-03-13T08:24:23.577Z,100403.11
2023-03-13T08:27:27.547Z,100405.91
2023-03-13T08:30:35.127Z,100419.75
2023-03-13T08:33:38.661Z,100425.98
2023-03-13T08:36:54.565Z,100420.71
2023-03-13T08:40:05.852Z,100430.77
2023-03-13T08:43:06.552Z,100425.35
2023-03-13T08:46:08.865Z,100425.48
2023-03-13T08:49:11.950Z,100427.98
2023-03-13T08:52:14.420Z,100433.15
2023-03-13T08:55:16.601Z,100424.10
2023-03-13T08:58:21.597Z,100419.52
2023-03-13T09:01:26.659Z,100418.23
2023-03-13T09:04:26.768Z,100422.19
2023-03-13T09:07:33.130Z,100411.50
2023-03-13T09:10:35.657Z,100413.16
2023-03-13T09:13:38.716Z,100402.52
2023-03-13T09:16:42.663Z,100394.85
2023-03-13T09:19:57.821Z,100392.67
2023-03-13T09:22:59.661Z,100398.19
2023-03-13T09:26:09.849Z,100398.91
2023-03-13T09:29:11.878Z,100396.15
2023-03-13T09:32:19.803Z,100397.77
2023-03-13T09:35:23.118Z,100395.15
2023-03-13T09:38:23.690Z,100388.02
2023-03-13T09:41:42.727Z,100383.49
2023-03-13T09:44:54.152Z,100394.23
2023-03-13T09:47:57.712Z,100388.10
2023-03-13T09:51:10.489Z,100386.73
2023-03-13T09:54:22.352Z,100395.02
2023-03-13T09:57:53.739Z,100384.70
2023-03-13T10:01:05.690Z,100372.98
2023-03-13T10:04:28.872Z,100388.84
2023-03-13T10:07:28.916Z,100375.22
2023-03-13T10:10:46.754Z,100369.58
2023-03-13T10:14:03.713Z,100363.14
2023-03-13T10:17:17.741Z,100344.25
2023-03-13T10:20:47.960Z,100344.55
2023-03-13T10:23:56.792Z,100347.94
2023-03-13T10:26:58.946Z,100356.46
2023-03-13T10:29:59.788Z,100348.27
2023-03-13T10:33:00.838Z,100340.84
2023-03-13T10:36:00.852Z,100345.75
2023-03-13T10:39:02.849Z,100363.86
2023-03-13T10:42:02.753Z,100340.84
2023-03-13T10:45:02.817Z,100342.29
2023-03-13T10:48:10.812Z,100336.38
2023-03-13T10:51:13.766Z,100334.77
2023-03-13T10:54:13.802Z,100314.39
2023-03-13T10:57:50.906Z,100309.11
2023-03-13T11:00:52.243Z,100301.61
2023-03-13T11:03:53.905Z,100301.48
2023-03-13T11:06:54.160Z,100286.25
2023-03-13T11:09:56.139Z,100277.10
2023-03-13T11:13:02.876Z,100290.54
2023-03-13T11:16:06.890Z,100289.34
2023-03-13T11:19:34.071Z,100273.36
2023-03-13T11:23:11.912Z,100257.36
2023-03-13T11:26:17.900Z,100252.45
2023-03-13T11:29:38.873Z,100243.45
2023-03-13T11:33:09.384Z,100248.26
2023-03-13T11:36:10.249Z,100260.21
2023-03-13T11:39:36.917Z,100265.36
2023-03-13T11:43:25.009Z,100254.35
2023-03-13T11:46:33.085Z,100251.86
2023-03-13T11:49:34.910Z,100239.88
2023-03-13T11:52:42.013Z,100237.91
2023-03-13T11:56:02.446Z,100231.44
2023-03-13T11:59:14.975Z,100225.92
2023-03-13T12:02:49.967Z,100221.72
2023-03-13T12:05:58.000Z,100222.08
2023-03-13T12:08:59.918Z,100223.27
2023-03-13T12:12:08.995Z,100221.91
2023-03-13T12:15:26.923Z,100226.14
2023-03-13T12:18:44.966Z,100220.52
2023-03-13T12:22:01.019Z,100226.92
2023-03-13T12:25:09.972Z,100220.52
2023-03-13T12:28:16.393Z,100227.02
2023-03-13T12:31:25.023Z,100228.63
2023-03-13T12:35:03.020Z,100209.63
2023-03-13T12:38:34.772Z,100207.05
2023-03-13T12:41:58.131Z,100211.95
2023-03-13T12:45:13.277Z,100208.06
2023-03-13T12:48:28.111Z,100211.19
2023-03-13T12:52:14.339Z,100204.21
2023-03-13T12:55:38.287Z,100211.86
2023-03-13T12:59:04.530Z,100214.16
2023-03-13T13:05:35.678Z,100205.09
2023-03-13T13:08:38.246Z,100206.85
2023-03-13T13:11:51.511Z,100245.27
2023-03-13T13:15:11.522Z,100203.03
2023-03-13T13:18:39.792Z,100207.41
2023-03-13T13:21:53.472Z,100211.72
2023-03-13T13:25:14.438Z,100200.07
2023-03-13T13:28:51.697Z,100207.86
2023-03-13T13:32:18.228Z,100205.56
2023-03-13T13:35:27.937Z,100203.19
2023-03-13T13:38:32.565Z,100213.21
2023-03-13T13:45:27.157Z,100193.27
2023-03-13T13:48:51.905Z,100174.46
2023-03-13T13:52:18.307Z,100175.81
2023-03-13T13:55:47.684Z,100179.72
2023-03-13T14:02:31.131Z,100163.73
2023-03-13T14:05:47.798Z,100164.02
2023-03-13T14:08:53.251Z,100169.42
2023-03-13T14:11:59.431Z,100165.95
2023-03-13T14:15:55.457Z,100174.85
2023-03-13T14:18:57.258Z,100180.79
2023-03-13T14:22:04.920Z,100180.34
2023-03-13T14:25:13.449Z,100173.48
2023-03-13T14:28:31.924Z,100172.08
2023-03-13T14:31:48.522Z,100171.20
2023-03-13T14:34:59.501Z,100175.21
2023-03-13T14:38:17.757Z,100162.25
2023-03-13T14:41:21.291Z,100170.38
2023-03-13T14:48:00.058Z,100143.48
2023-03-13T14:51:15.117Z,100139.53
2023-03-13T14:54:18.172Z,100146.14
2023-03-13T14:57:29.240Z,100131.61
2023-03-13T15:01:06.748Z,100128.95
2023-03-13T15:04:10.493Z,100126.44
2023-03-13T15:07:25.575Z,100129.55
2023-03-13T15:10:49.467Z,100120.73
2023-03-13T15:14:09.701Z,100119.78
2023-03-13T15:17:53.142Z,100118.48
2023-03-13T15:21:09.266Z,100103.50
2023-03-13T15:24:14.770Z,100100.08
2023-03-13T15:27:34.740Z,100098.77
2023-03-13T15:30:40.791Z,100092.23
2023-03-13T15:33:45.570Z,100088.45
2023-03-13T15:37:02.528Z,100101.34
2023-03-13T15:40:28.670Z,100103.31
2023-03-13T15:43:40.572Z,100105.15
2023-03-13T15:46:58.922Z,100108.40
2023-03-13T15:50:01.819Z,100102.20
2023-03-13T15:53:11.778Z,100113.98
2023-03-13T15:56:40.000Z,100105.05
2023-03-13T15:59:54.889Z,100106.26
2023-03-13T16:03:09.088Z,100100.89
2023-03-13T16:06:11.760Z,100097.42
2023-03-13T16:09:14.409Z,100093.98
2023-03-13T16:12:15.303Z,100097.58
2023-03-13T16:15:20.346Z,100092.44
2023-03-13T16:18:37.634Z,100102.81
2023-03-13T16:21:46.348Z,100093.35
2023-03-13T16:24:47.445Z,100086.59
2023-03-13T16:27:48.503Z,100097.83
2023-03-13T16:30:53.757Z,100090.99
2023-03-13T16:33:55.427Z,100089.47
2023-03-13T16:36:55.505Z,100089.11
2023-03-13T16:39:59.724Z,100088.56
2023-03-13T16:42:59.676Z,100078.64
2023-03-13T16:46:04.827Z,100091.97
2023-03-13T16:49:07.979Z,100082.73
2023-03-13T16:52:12.426Z,100083.71
2023-03-13T16:55:12.414Z,100074.16
2023-03-13T16:58:13.500Z,100070.02
2023-03-13T17:01:21.545Z,100082.30
2023-03-13T17:04:23.485Z,100082.96
2023-03-13T17:07:36.492Z,100072.73
2023-03-13T17:10:55.724Z,100070.52
2023-03-13T17:14:03.470Z,100072.24
2023-03-13T17:17:12.143Z,100082.80
2023-03-13T17:20:28.797Z,100078.88
2023-03-13T17:23:37.522Z,100081.82
2023-03-13T17:26:51.195Z,100068.39
2023-03-13T17:29:56.386Z,100063.82
2023-03-13T17:32:59.214Z,100064.55
2023-03-13T17:36:00.794Z,100062.65
2023-03-13T17:39:03.567Z,100053.33
2023-03-13T17:42:06.525Z,100058.95
2023-03-13T17:45:08.505Z,100053.10
2023-03-13T17:48:09.609Z,100067.59
2023-03-13T17:51:10.521Z,100074.71
2023-03-13T17:54:13.704Z,100061.02
2023-03-13T17:57:15.931Z,100054.73
2023-03-13T18:00:41.566Z,100059.42
2023-03-13T18:03:43.746Z,100052.09
2023-03-13T18:06:48.165Z,100050.79
2023-03-13T18:09:53.765Z,100060.27
2023-03-13T18:13:01.899Z,100050.06
2023-03-13T18:16:01.695Z,100048.94
2023-03-13T18:19:11.644Z,100057.78
2023-03-13T18:22:11.740Z,100058.81
2023-03-13T18:25:18.194Z,100049.94
2023-03-13T18:28:23.555Z,100045.84
2023-03-13T18:31:27.305Z,100056.95
2023-03-13T18:34:29.456Z,100057.73
2023-03-13T18:37:43.412Z,100049.48
2023-03-13T18:40:47.645Z,100048.09
2023-03-13T18:43:50.193Z,100059.77
2023-03-13T18:46:55.485Z,100045.54
2023-03-13T18:50:01.942Z,100040.10
2023-03-13T18:53:05.965Z,100049.10
2023-03-13T18:56:05.674Z,100040.40
2023-03-13T18:59:07.620Z,100032.52
2023-03-13T19:02:07.697Z,100029.18
2023-03-13T19:05:12.157Z,100020.90
2023-03-13T19:08:14.199Z,100026.06
2023-03-13T19:11:20.275Z,100022.73
2023-03-13T19:14:31.961Z,100033.89
2023-03-13T19:17:50.883Z,100026.55
2023-03-13T19:20:56.926Z,100034.56
2023-03-13T19:24:03.762Z,100030.63
2023-03-13T19:27:11.986Z,100023.64
2023-03-13T19:30:15.873Z,100031.67
2023-03-13T19:33:17.708Z,100024.73
2023-03-13T19:36:23.739Z,100020.43
2023-03-13T19:39:31.782Z,100025.89
2023-03-13T19:42:33.696Z,100035.20
2023-03-13T19:45:34.234Z,100030.77
2023-03-13T19:48:38.950Z,100040.70
2023-03-13T19:51:43.824Z,100026.95
2023-03-13T19:54:44.739Z,100033.23
2023-03-13T19:57:47.744Z,100028.16
2023-03-13T20:00:48.980Z,100041.86
2023-03-13T20:03:49.709Z,100022.45
2023-03-13T20:06:52.792Z,100018.89
2023-03-13T20:09:53.720Z,100017.51
2023-03-13T20:12:53.841Z,100017.80
2023-03-13T20:15:55.072Z,100025.00
2023-03-13T20:18:57.759Z,100018.91
2023-03-13T20:21:58.764Z,100017.05
2023-03-13T20:25:01.896Z,100020.75
2023-03-13T20:28:09.771Z,100005.02
2023-03-13T20:31:10.058Z,100005.20
2023-03-13T20:34:09.873Z,100010.83
2023-03-13T20:37:09.797Z,100012.16
2023-03-13T20:40:14.777Z,100002.27
2023-03-13T20:43:17.153Z,100012.07
2023-03-13T20:46:28.912Z,100005.92
2023-03-13T20:49:29.936Z,99997.20
2023-03-13T20:52:33.976Z,100003.98
2023-03-13T20:55:36.821Z,100009.17
2023-03-13T20:58:38.817Z,100017.02
2023-03-13T21:01:38.969Z,100008.67
2023-03-13T21:04:39.977Z,100014.89
2023-03-13T21:07:39.850Z,100013.86
2023-03-13T21:10:46.579Z,100021.20
2023-03-13T21:13:46.926Z,100010.90
2023-03-13T21:16:54.138Z,100010.79
2023-03-13T21:19:55.916Z,100023.46
2023-03-13T21:22:57.061Z,100010.30
2023-03-13T21:25:57.153Z,100012.05
2023-03-13T21:28:58.898Z,100007.53
2023-03-13T21:32:06.008Z,100005.31
2023-03-13T21:35:05.899Z,100015.14
2023-03-13T21:38:10.090Z,100010.41
2023-03-13T21:41:10.030Z,100021.02
2023-03-13T21:44:11.938Z,100009.52
2023-03-13T21:47:15.275Z,100009.80
2023-03-13T21:50:23.022Z,100009.66
2023-03-13T21:53:25.339Z,100011.27
2023-03-13T21:56:26.916Z,100000.52
2023-03-13T21:59:35.921Z,100011.73
2023-03-13T22:02:35.902Z,100016.51
2023-03-13T22:05:36.928Z,100011.75
2023-03-13T22:08:39.056Z,100020.24
2023-03-13T22:11:40.918Z,100010.23
2023-03-13T22:14:44.165Z,100009.73
2023-03-13T22:17:44.305Z,100003.81
2023-03-13T22:20:48.384Z,100005.86
2023-03-13T22:23:51.014Z,100004.34
2023-03-13T22:26:53.020Z,100006.16
2023-03-13T22:29:53.989Z,100015.51
2023-03-13T22:32:55.076Z,100012.38
2023-03-13T22:35:56.102Z,100004.00
2023-03-13T22:38:56.088Z,100003.14
2023-03-13T22:41:57.006Z,99996.05
2023-03-13T22:44:56.999Z,99992.85
2023-03-13T22:47:57.093Z,99997.64
2023-03-13T22:51:00.008Z,100002.14
2023-03-13T22:54:01.032Z,99983.46
2023-03-13T22:57:02.037Z,99985.38
2023-03-13T23:00:03.975Z,99977.89
2023-03-13T23:03:04.999Z,99985.54
2023-03-13T23:06:06.050Z,99973.61
2023-03-13T23:09:06.079Z,99972.41
2023-03-13T23:12:06.113Z,99976.64
2023-03-13T23:15:12.053Z,99960.31
2023-03-13T23:18:13.036Z,99978.45
2023-03-13T23:21:23.032Z,99972.53
2023-03-13T23:24:23.008Z,99965.77
2023-03-13T23:27:26.088Z,99982.20
2023-03-13T23:30:26.122Z,99967.74
2023-03-13T23:33:26.134Z,99967.66
2023-03-13T23:36:29.187Z,99960.99
2023-03-13T23:39:33.120Z,99949.66
2023-03-13T23:42:38.719Z,99944.02
2023-03-13T23:45:48.122Z,99954.63
2023-03-13T23:48:50.114Z,99949.36
2023-03-13T23:51:52.128Z,99945.10
2023-03-13T23:54:53.134Z,99951.98
2023-03-13T23:57:54.226Z,99945.14
